Time;durP1;ratioP1;P1;durP2;ratioP2;P2;SDS_P1;SDS_P2;PMS_P1;PMS_P2;Temp;Humidity;BMP_temperature;BMP_pressure;BME280_temperature;BME280_humidity;BME280_pressure;Samples;Min_cycle;Max_cycle;Signal;HPM_P1;HPM_P2
2021/03/05 00:00:46;;;;;;;8.67;4.20;;;7.00;99.90;;;;;;4994958;28;20627;-68
2021/03/05 00:03:12;;;;;;;8.23;5.03;;;7.00;99.90;;;;;;5032420;28;20702;-69
2021/03/05 00:05:39;;;;;;;7.67;4.77;;;7.10;99.90;;;;;;5014192;28;20465;-69
2021/03/05 00:08:05;;;;;;;9.63;5.17;;;7.10;99.90;;;;;;5030046;28;20323;-69
2021/03/05 00:10:34;;;;;;;5.50;4.10;;;7.00;99.90;;;;;;5030788;28;20471;-68
2021/03/05 00:13:01;;;;;;;6.17;4.17;;;7.00;99.90;;;;;;5015028;28;20523;-69
2021/03/05 00:15:33;;;;;;;9.30;4.93;;;7.00;99.90;;;;;;4999331;28;20447;-69
2021/03/05 00:17:59;;;;;;;8.77;4.00;;;7.00;99.90;;;;;;4998492;28;20479;-69
2021/03/05 00:20:26;;;;;;;10.17;5.37;;;6.90;99.90;;;;;;5023175;28;20480;-69
2021/03/05 00:22:53;;;;;;;7.77;4.50;;;6.80;99.90;;;;;;5014947;28;20490;-69
2021/03/05 00:25:19;;;;;;;8.17;4.57;;;6.80;99.90;;;;;;5014860;28;20450;-69
2021/03/05 00:27:44;;;;;;;6.00;3.83;;;6.80;99.90;;;;;;4998612;28;20475;-67
2021/03/05 00:30:11;;;;;;;10.30;5.00;;;6.80;99.90;;;;;;5015201;28;20453;-69
2021/03/05 00:32:37;;;;;;;10.37;4.97;;;6.80;99.90;;;;;;4997744;28;20213;-69
2021/03/05 00:35:06;;;;;;;11.03;5.37;;;6.70;99.90;;;;;;5014268;28;20458;-69
2021/03/05 00:37:32;;;;;;;8.03;5.03;;;6.70;99.90;;;;;;5003461;28;21000;-70
2021/03/05 00:39:57;;;;;;;6.23;4.60;;;6.70;99.90;;;;;;5018628;28;20456;-68
2021/03/05 00:42:23;;;;;;;7.00;4.30;;;6.80;99.90;;;;;;5028468;28;20307;-69
2021/03/05 00:44:49;;;;;;;3.87;2.00;;;6.80;99.90;;;;;;5031372;28;20208;-68
2021/03/05 00:47:14;;;;;;;8.20;5.93;;;6.90;99.90;;;;;;5031646;28;20295;-67
2021/03/05 00:49:40;;;;;;;5.00;3.20;;;6.80;99.90;;;;;;5024742;28;20559;-70
2021/03/05 00:52:06;;;;;;;9.50;4.90;;;6.70;99.90;;;;;;5001136;28;20271;-68
2021/03/05 00:54:32;;;;;;;10.70;4.63;;;6.80;99.90;;;;;;5014704;28;20221;-69
2021/03/05 00:56:59;;;;;;;8.07;4.00;;;6.80;99.90;;;;;;5007040;28;20216;-67
2021/03/05 00:59:24;;;;;;;6.30;3.73;;;6.80;99.90;;;;;;4998712;28;20470;-69
2021/03/05 01:01:51;;;;;;;11.53;4.93;;;6.80;99.90;;;;;;5014213;28;20216;-69
2021/03/05 01:04:16;;;;;;;8.33;4.77;;;6.70;99.90;;;;;;5012559;28;20795;-69
2021/03/05 01:06:47;;;;;;;6.30;4.30;;;6.70;99.90;;;;;;5015361;28;20325;-70
2021/03/05 01:09:17;;;;;;;6.60;3.53;;;6.60;99.90;;;;;;5032124;28;20455;-69
2021/03/05 01:11:43;;;;;;;9.40;5.23;;;6.60;99.90;;;;;;5031246;28;20459;-70
2021/03/05 01:14:09;;;;;;;9.27;5.30;;;6.60;99.90;;;;;;5030782;28;20448;-69
2021/03/05 01:16:34;;;;;;;8.77;4.27;;;6.60;99.90;;;;;;5019913;28;20594;-70
2021/03/05 01:19:00;;;;;;;10.97;5.10;;;6.60;99.90;;;;;;5031091;28;20693;-69
2021/03/05 01:21:26;;;;;;;10.80;5.77;;;6.50;99.90;;;;;;5040159;28;20231;-67
2021/03/05 01:23:52;;;;;;;7.37;4.43;;;6.60;99.90;;;;;;5016154;28;20217;-70
2021/03/05 01:26:18;;;;;;;9.30;4.27;;;6.60;99.90;;;;;;5031268;28;20281;-68
2021/03/05 01:28:45;;;;;;;10.27;4.37;;;6.60;99.90;;;;;;5013676;28;20463;-69
2021/03/05 01:31:13;;;;;;;8.20;4.10;;;6.60;99.90;;;;;;4996281;28;20545;-67
2021/03/05 01:33:39;;;;;;;7.70;5.30;;;6.60;99.90;;;;;;5026895;28;20455;-67
2021/03/05 01:36:07;;;;;;;10.87;4.47;;;6.60;99.90;;;;;;5031563;28;20508;-68
2021/03/05 01:38:33;;;;;;;12.30;5.07;;;6.60;99.90;;;;;;5031760;28;20239;-68
2021/03/05 01:40:59;;;;;;;10.13;5.77;;;6.60;99.90;;;;;;5030302;28;20454;-70
2021/03/05 01:43:27;;;;;;;9.07;5.17;;;6.60;99.90;;;;;;5012412;28;20227;-67
2021/03/05 01:45:54;;;;;;;8.67;5.13;;;6.60;99.90;;;;;;5019547;28;20225;-70
2021/03/05 01:48:20;;;;;;;11.07;5.23;;;6.60;99.90;;;;;;5029562;28;20454;-67
2021/03/05 01:50:55;;;;;;;10.07;5.57;;;6.60;99.90;;;;;;5030484;28;20539;-67
2021/03/05 01:53:23;;;;;;;10.57;5.50;;;6.60;99.90;;;;;;5021093;28;20474;-67
2021/03/05 01:55:48;;;;;;;7.03;4.50;;;6.60;99.90;;;;;;5008911;28;20451;-68
2021/03/05 01:58:14;;;;;;;12.00;4.93;;;6.70;99.90;;;;;;5000356;28;20973;-67
2021/03/05 02:00:43;;;;;;;11.03;6.00;;;6.70;99.90;;;;;;5030798;28;20232;-68
2021/03/05 02:03:09;;;;;;;7.77;4.67;;;6.70;99.90;;;;;;5048033;28;20228;-67
2021/03/05 02:05:36;;;;;;;12.10;4.93;;;6.70;99.90;;;;;;5015314;28;20542;-67
2021/03/05 02:08:02;;;;;;;9.80;5.63;;;6.70;99.90;;;;;;5030636;28;20542;-67
2021/03/05 02:10:28;;;;;;;10.63;5.63;;;6.70;99.90;;;;;;5030783;28;20451;-67
2021/03/05 02:12:54;;;;;;;7.50;4.80;;;6.70;99.90;;;;;;5052532;28;20527;-67
2021/03/05 02:15:20;;;;;;;12.10;5.67;;;6.70;99.90;;;;;;5045089;28;20224;-68
2021/03/05 02:18:05;;;;;;;10.47;4.97;;;6.70;99.90;;;;;;5010849;28;20605;-68
2021/03/05 02:21:03;;;;;;;7.40;4.80;;;6.70;99.90;;;;;;5027977;28;20466;-67
2021/03/05 02:23:31;;;;;;;10.00;5.73;;;6.70;99.90;;;;;;5048235;28;20458;-70
2021/03/05 02:26:27;;;;;;;9.40;4.67;;;6.70;99.90;;;;;;5037116;28;20470;-67
2021/03/05 02:29:20;;;;;;;11.03;4.70;;;6.80;99.90;;;;;;4997127;28;20523;-68
2021/03/05 02:31:58;;;;;;;7.13;4.10;;;6.80;99.90;;;;;;5031126;28;20462;-67
2021/03/05 02:34:30;;;;;;;9.53;4.50;;;6.80;99.90;;;;;;5007973;28;20446;-68
2021/03/05 02:37:04;;;;;;;13.13;5.10;;;6.80;99.90;;;;;;5027747;28;20440;-67
2021/03/05 02:39:52;;;;;;;15.03;6.00;;;6.70;99.90;;;;;;5038935;28;20998;-68
2021/03/05 02:42:28;;;;;;;11.23;6.30;;;6.70;99.90;;;;;;5034471;28;20467;-67
2021/03/05 02:45:00;;;;;;;9.73;5.57;;;6.70;99.90;;;;;;5042328;28;20576;-68
2021/03/05 02:47:31;;;;;;;9.43;5.43;;;6.80;99.90;;;;;;5026363;28;20472;-67
2021/03/05 02:49:57;;;;;;;10.60;5.90;;;6.80;99.90;;;;;;5032927;28;20795;-67
2021/03/05 02:52:25;;;;;;;10.60;5.70;;;6.80;99.90;;;;;;5018212;28;20459;-68
2021/03/05 02:54:55;;;;;;;10.97;5.37;;;6.80;99.90;;;;;;5032245;28;20616;-68
2021/03/05 02:57:22;;;;;;;12.13;6.17;;;6.80;99.90;;;;;;5006154;28;20463;-69
2021/03/05 02:59:50;;;;;;;11.73;6.27;;;6.80;99.90;;;;;;5029913;28;20464;-68
2021/03/05 03:02:16;;;;;;;14.67;6.30;;;6.80;99.90;;;;;;4998176;28;20534;-68
2021/03/05 03:04:43;;;;;;;11.97;6.30;;;6.70;99.90;;;;;;5034446;28;20467;-68
2021/03/05 03:07:12;;;;;;;12.10;5.90;;;6.70;99.90;;;;;;5016168;28;20439;-67
2021/03/05 03:09:39;;;;;;;14.30;7.13;;;6.70;99.90;;;;;;5041928;28;20487;-68
2021/03/05 03:12:09;;;;;;;11.73;5.40;;;6.70;99.90;;;;;;5008210;28;20451;-67
2021/03/05 03:14:39;;;;;;;11.73;5.60;;;6.70;99.90;;;;;;5035782;28;21018;-67
2021/03/05 03:17:07;;;;;;;11.30;5.97;;;6.70;99.90;;;;;;5017365;28;20562;-67
2021/03/05 03:19:34;;;;;;;13.53;6.83;;;6.70;99.90;;;;;;5033520;28;20487;-67
2021/03/05 03:22:02;;;;;;;11.43;5.73;;;6.60;99.90;;;;;;5049842;28;20444;-67
2021/03/05 03:24:28;;;;;;;17.40;8.07;;;6.70;99.90;;;;;;5033987;28;20457;-67
2021/03/05 03:26:54;;;;;;;11.87;6.60;;;6.70;99.90;;;;;;5033274;28;20466;-68
2021/03/05 03:29:19;;;;;;;13.90;6.57;;;6.70;99.90;;;;;;5033593;28;20690;-67
2021/03/05 03:31:45;;;;;;;13.50;6.73;;;6.70;99.90;;;;;;5033208;28;20230;-68
2021/03/05 03:34:12;;;;;;;12.67;6.70;;;6.70;99.90;;;;;;5050360;28;20694;-67
2021/03/05 03:36:39;;;;;;;13.50;7.00;;;6.70;99.90;;;;;;5033826;28;20266;-67
2021/03/05 03:39:07;;;;;;;17.37;7.63;;;6.70;99.90;;;;;;5032959;28;20466;-69
2021/03/05 03:41:34;;;;;;;17.57;7.93;;;6.70;99.90;;;;;;5033330;28;20479;-67
2021/03/05 03:44:00;;;;;;;16.60;7.30;;;6.60;99.90;;;;;;5049672;28;20462;-68
2021/03/05 03:46:27;;;;;;;11.40;6.53;;;6.60;99.90;;;;;;5049847;28;21112;-68
2021/03/05 03:48:57;;;;;;;10.93;4.87;;;6.60;99.90;;;;;;5016265;28;20537;-68
2021/03/05 03:51:26;;;;;;;5.70;3.57;;;6.60;99.90;;;;;;5049463;28;20467;-68
2021/03/05 03:53:54;;;;;;;12.60;7.20;;;6.60;99.90;;;;;;5025556;28;20464;-67
2021/03/05 03:56:25;;;;;;;13.10;6.10;;;6.40;99.90;;;;;;5031369;28;20455;-68
2021/03/05 03:58:54;;;;;;;9.40;5.40;;;6.30;99.90;;;;;;5050369;28;20471;-68
2021/03/05 04:01:21;;;;;;;11.27;5.07;;;6.30;99.90;;;;;;5015942;28;20584;-67
2021/03/05 04:03:51;;;;;;;4.13;2.90;;;6.20;99.90;;;;;;5016860;28;20451;-68
2021/03/05 04:06:24;;;;;;;7.70;4.70;;;6.20;99.90;;;;;;5033271;28;20466;-69
2021/03/05 04:08:51;;;;;;;8.97;4.03;;;6.20;99.90;;;;;;5016296;28;20473;-68
2021/03/05 04:11:18;;;;;;;7.97;4.63;;;6.20;99.90;;;;;;5032446;28;20470;-67
2021/03/05 04:13:45;;;;;;;3.33;2.60;;;6.10;99.90;;;;;;5032409;28;20455;-69
2021/03/05 04:16:11;;;;;;;6.77;4.27;;;6.00;99.90;;;;;;5031396;28;20463;-67
2021/03/05 04:18:38;;;;;;;7.80;4.60;;;6.00;99.90;;;;;;4996496;28;20475;-67
2021/03/05 04:21:09;;;;;;;5.70;3.43;;;6.00;99.90;;;;;;5029329;28;20450;-68
2021/03/05 04:23:35;;;;;;;6.37;4.17;;;6.00;99.90;;;;;;5031180;28;20456;-69
2021/03/05 04:26:02;;;;;;;6.60;3.10;;;6.00;99.90;;;;;;5010006;28;20455;-68
2021/03/05 04:28:28;;;;;;;6.40;3.93;;;5.90;99.90;;;;;;5032041;28;20539;-68
2021/03/05 04:30:54;;;;;;;5.30;3.07;;;6.00;99.90;;;;;;5048436;28;20474;-68
2021/03/05 04:33:19;;;;;;;4.20;2.57;;;5.90;99.90;;;;;;5032395;28;20451;-67
2021/03/05 04:35:45;;;;;;;8.33;3.20;;;6.00;99.90;;;;;;5032065;28;20303;-67
2021/03/05 04:38:11;;;;;;;5.50;3.13;;;6.00;99.90;;;;;;5030631;28;20225;-68
2021/03/05 04:40:37;;;;;;;4.20;2.90;;;6.00;99.90;;;;;;5038102;28;20225;-67
2021/03/05 04:43:03;;;;;;;5.13;2.07;;;6.10;99.90;;;;;;5012212;28;20232;-67
2021/03/05 04:45:28;;;;;;;3.30;1.80;;;6.10;99.90;;;;;;5015798;28;20229;-68
2021/03/05 04:47:54;;;;;;;3.03;1.40;;;6.00;99.90;;;;;;4996639;28;20448;-68
2021/03/05 04:50:20;;;;;;;6.60;2.20;;;5.90;99.90;;;;;;5013161;28;20224;-69
2021/03/05 04:52:45;;;;;;;2.60;1.90;;;5.90;99.90;;;;;;5001443;28;20227;-67
2021/03/05 04:55:12;;;;;;;5.33;2.07;;;6.00;99.90;;;;;;5012230;28;20236;-68
2021/03/05 04:57:37;;;;;;;3.87;2.50;;;6.00;99.90;;;;;;5031905;28;20220;-66
2021/03/05 05:00:07;;;;;;;5.30;2.60;;;6.00;99.90;;;;;;5014876;28;20450;-68
2021/03/05 05:02:33;;;;;;;50.73;22.93;;;6.00;99.90;;;;;;5031783;28;20220;-68
2021/03/05 05:04:58;;;;;;;12.77;7.27;;;5.90;99.90;;;;;;5031814;28;21048;-67
2021/03/05 05:07:24;;;;;;;1.87;1.77;;;5.80;99.90;;;;;;5031351;28;20303;-68
2021/03/05 05:09:51;;;;;;;4.43;3.50;;;5.80;99.90;;;;;;4998724;28;20220;-66
2021/03/05 05:12:18;;;;;;;4.27;2.33;;;5.70;99.90;;;;;;4999528;28;20221;-67
2021/03/05 05:14:44;;;;;;;5.00;2.60;;;5.70;99.90;;;;;;5015054;28;20822;-68
2021/03/05 05:17:10;;;;;;;2.83;2.53;;;5.70;99.90;;;;;;5031769;28;20443;-69
2021/03/05 05:19:36;;;;;;;5.73;2.43;;;5.70;99.90;;;;;;5031421;28;20247;-68
2021/03/05 05:22:02;;;;;;;6.40;3.50;;;5.70;99.90;;;;;;5030957;28;20224;-67
2021/03/05 05:24:28;;;;;;;5.63;2.87;;;5.70;99.90;;;;;;5012024;28;20591;-68
2021/03/05 05:26:53;;;;;;;5.37;3.27;;;5.70;99.90;;;;;;5027775;28;20496;-67
2021/03/05 05:29:19;;;;;;;4.77;2.73;;;5.80;99.90;;;;;;5023208;28;20576;-68
2021/03/05 05:31:45;;;;;;;5.80;3.23;;;5.70;99.90;;;;;;5014566;28;20239;-68
2021/03/05 05:34:10;;;;;;;8.30;4.57;;;5.80;99.90;;;;;;5031754;28;20684;-68
2021/03/05 05:36:36;;;;;;;1.70;1.40;;;5.70;99.90;;;;;;5048211;28;20232;-67
2021/03/05 05:39:02;;;;;;;3.70;2.70;;;5.60;99.90;;;;;;5030848;28;20724;-68
2021/03/05 05:41:28;;;;;;;5.03;2.63;;;5.60;99.90;;;;;;5031249;28;20265;-67
2021/03/05 05:43:54;;;;;;;5.90;3.23;;;5.60;99.90;;;;;;5027362;28;20972;-69
2021/03/05 05:46:22;;;;;;;5.10;2.77;;;5.60;99.90;;;;;;5015543;28;20221;-68
2021/03/05 05:48:48;;;;;;;4.00;2.80;;;5.60;99.90;;;;;;5014314;28;20225;-67
2021/03/05 05:51:23;;;;;;;9.53;3.43;;;5.60;99.90;;;;;;5030514;28;20855;-69
2021/03/05 05:53:49;;;;;;;8.87;4.53;;;5.60;99.90;;;;;;5024141;28;20455;-67
2021/03/05 05:56:16;;;;;;;3.83;3.10;;;5.70;99.90;;;;;;5037770;28;20465;-68
2021/03/05 05:58:43;;;;;;;4.33;2.10;;;5.60;99.90;;;;;;5029967;28;20459;-67
2021/03/05 06:01:09;;;;;;;5.90;2.80;;;5.60;99.90;;;;;;5012310;28;20868;-69
2021/03/05 06:03:37;;;;;;;8.17;3.87;;;5.60;99.90;;;;;;5021101;28;20451;-67
2021/03/05 06:06:03;;;;;;;10.87;4.40;;;5.60;99.90;;;;;;5034057;28;20450;-67
2021/03/05 06:08:29;;;;;;;5.87;3.00;;;5.60;99.90;;;;;;5017700;28;20451;-70
2021/03/05 06:10:55;;;;;;;8.23;3.90;;;5.60;99.90;;;;;;5029882;28;20236;-67
2021/03/05 06:13:25;;;;;;;10.33;3.77;;;5.60;99.90;;;;;;5031117;28;20466;-68
2021/03/05 06:16:16;;;;;;;5.30;3.10;;;5.50;99.90;;;;;;5040015;28;20807;-67
2021/03/05 06:18:44;;;;;;;11.20;4.17;;;5.60;99.90;;;;;;5050935;28;20467;-68
2021/03/05 06:21:10;;;;;;;10.27;4.10;;;5.60;99.90;;;;;;5047508;28;20459;-69
2021/03/05 06:23:59;;;;;;;4.33;2.67;;;5.60;99.90;;;;;;5038146;28;20455;-68
2021/03/05 06:26:25;;;;;;;2.00;1.20;;;5.60;99.90;;;;;;5034321;28;20451;-67
2021/03/05 06:29:07;;;;;;;5.07;3.50;;;5.60;99.90;;;;;;5033061;28;20474;-68
2021/03/05 06:31:34;;;;;;;3.87;2.17;;;5.50;99.90;;;;;;5033463;28;20458;-67
2021/03/05 06:34:05;;;;;;;6.13;3.90;;;5.50;99.90;;;;;;5032517;28;21368;-69
2021/03/05 06:36:32;;;;;;;4.07;2.50;;;5.50;99.90;;;;;;5046811;28;20481;-70
2021/03/05 06:39:05;;;;;;;9.73;3.87;;;5.50;99.90;;;;;;5022638;28;20548;-69
2021/03/05 06:41:31;;;;;;;7.17;3.87;;;5.50;99.90;;;;;;5034286;28;20558;-67
2021/03/05 06:44:02;;;;;;;12.40;3.80;;;5.50;99.90;;;;;;5049274;28;20458;-69
2021/03/05 06:46:39;;;;;;;10.40;4.47;;;5.50;99.90;;;;;;5015366;28;20605;-69
2021/03/05 06:49:06;;;;;;;7.20;4.00;;;5.50;99.90;;;;;;5048406;28;20542;-69
2021/03/05 06:51:32;;;;;;;7.80;4.23;;;5.50;99.90;;;;;;5050251;28;20487;-68
2021/03/05 06:54:14;;;;;;;5.03;3.30;;;5.50;99.90;;;;;;5032998;28;20878;-68
2021/03/05 06:56:50;;;;;;;4.47;3.60;;;5.50;99.90;;;;;;5016569;28;20228;-67
2021/03/05 06:59:20;;;;;;;6.57;3.83;;;5.50;99.90;;;;;;5032995;28;21003;-68
2021/03/05 07:01:52;;;;;;;9.43;4.47;;;5.50;99.90;;;;;;5033745;28;20459;-68
2021/03/05 07:04:25;;;;;;;4.10;3.27;;;5.50;99.90;;;;;;5016932;28;20451;-69
2021/03/05 07:07:01;;;;;;;5.60;3.43;;;5.50;99.90;;;;;;5049385;28;20509;-67
2021/03/05 07:09:38;;;;;;;9.20;3.73;;;5.40;99.90;;;;;;5049527;28;20467;-68
2021/03/05 07:12:26;;;;;;;6.03;3.60;;;5.50;99.90;;;;;;5049357;28;20443;-68
2021/03/05 07:15:06;;;;;;;6.13;3.90;;;5.60;99.90;;;;;;5041838;28;20827;-67
2021/03/05 07:17:33;;;;;;;7.57;3.80;;;5.60;99.90;;;;;;5013411;28;20498;-68
2021/03/05 07:19:59;;;;;;;6.70;2.87;;;5.60;99.90;;;;;;5028308;28;21038;-67
2021/03/05 07:22:29;;;;;;;6.97;3.90;;;5.50;99.90;;;;;;5031885;28;20459;-67
2021/03/05 07:24:57;;;;;;;7.00;3.57;;;5.30;99.90;;;;;;5010358;28;20535;-68
2021/03/05 07:27:37;;;;;;;7.10;3.47;;;5.40;99.90;;;;;;5016502;28;20455;-68
2021/03/05 07:30:03;;;;;;;6.80;3.53;;;5.50;99.90;;;;;;5016076;28;20462;-68
2021/03/05 07:32:49;;;;;;;9.90;4.50;;;5.50;99.90;;;;;;5032131;28;20459;-67
2021/03/05 07:35:29;;;;;;;5.70;3.77;;;5.60;99.90;;;;;;5049113;28;20455;-68
2021/03/05 07:37:59;;;;;;;6.80;4.10;;;5.60;99.90;;;;;;5048091;28;20491;-67
2021/03/05 07:40:28;;;;;;;6.93;3.87;;;5.60;99.90;;;;;;5033085;28;20451;-67
2021/03/05 07:42:57;;;;;;;8.73;3.90;;;5.60;99.90;;;;;;5031962;28;20467;-67
2021/03/05 07:45:23;;;;;;;7.40;4.30;;;5.60;99.90;;;;;;5048155;28;20474;-67
2021/03/05 07:47:52;;;;;;;12.93;3.83;;;5.60;99.90;;;;;;5027370;28;20479;-70
2021/03/05 07:50:24;;;;;;;9.50;4.60;;;5.60;99.90;;;;;;5028822;28;20251;-67
2021/03/05 07:52:50;;;;;;;8.60;4.10;;;5.60;99.90;;;;;;5047578;28;20462;-68
2021/03/05 07:55:33;;;;;;;6.97;3.70;;;5.70;99.90;;;;;;5028487;28;20539;-68
2021/03/05 07:57:59;;;;;;;5.60;3.53;;;5.70;99.90;;;;;;5047430;28;20917;-68
2021/03/05 08:00:51;;;;;;;3.87;3.43;;;5.60;99.90;;;;;;5030454;28;20471;-69
2021/03/05 08:03:18;;;;;;;5.60;4.00;;;5.70;99.90;;;;;;5015396;28;20220;-69
2021/03/05 08:05:46;;;;;;;4.90;3.63;;;5.70;99.90;;;;;;5031329;28;20972;-69
2021/03/05 08:08:16;;;;;;;10.60;4.37;;;5.80;99.90;;;;;;5031931;28;20490;-70
2021/03/05 08:10:50;;;;;;;6.53;4.20;;;5.80;99.90;;;;;;5048225;28;20521;-70
2021/03/05 08:13:55;;;;;;;8.60;4.30;;;5.80;99.90;;;;;;5026192;28;20486;-71
2021/03/05 08:16:29;;;;;;;8.30;4.60;;;5.70;99.90;;;;;;5027644;28;21020;-69
2021/03/05 08:19:16;;;;;;;9.73;3.70;;;5.70;99.90;;;;;;5043697;28;20466;-68
2021/03/05 08:21:58;;;;;;;6.80;4.17;;;5.80;99.90;;;;;;5021880;28;20502;-71
2021/03/05 08:24:43;;;;;;;7.17;3.60;;;5.70;99.90;;;;;;5046740;28;20456;-72
2021/03/05 08:27:14;;;;;;;6.17;3.67;;;5.70;99.90;;;;;;5021435;28;20459;-69
2021/03/05 08:30:02;;;;;;;9.27;3.63;;;5.80;99.90;;;;;;5045718;28;20887;-71
2021/03/05 08:32:31;;;;;;;7.20;3.43;;;5.80;99.90;;;;;;5029128;28;20552;-69
2021/03/05 08:34:57;;;;;;;7.27;4.53;;;5.80;99.90;;;;;;5040656;28;20466;-69
2021/03/05 08:37:30;;;;;;;4.27;2.17;;;5.80;99.90;;;;;;5030109;28;20457;-69
2021/03/05 08:40:14;;;;;;;5.50;3.33;;;5.80;99.90;;;;;;4997437;28;20489;-67
2021/03/05 08:42:50;;;;;;;8.10;4.50;;;5.70;99.90;;;;;;5047485;28;20547;-67
2021/03/05 08:45:28;;;;;;;8.43;4.70;;;5.70;99.90;;;;;;5030713;28;20478;-67
2021/03/05 08:47:55;;;;;;;8.40;3.97;;;5.70;99.90;;;;;;5026450;28;20459;-67
2021/03/05 08:50:30;;;;;;;8.30;3.97;;;5.70;99.90;;;;;;5031117;28;20443;-69
2021/03/05 08:53:16;;;;;;;10.13;5.30;;;5.60;99.90;;;;;;5030637;28;20455;-68
2021/03/05 08:55:44;;;;;;;7.00;3.70;;;5.60;99.90;;;;;;5019679;28;20985;-68
2021/03/05 08:58:16;;;;;;;6.43;3.73;;;5.60;99.90;;;;;;5012055;28;20467;-68
2021/03/05 09:00:42;;;;;;;8.30;3.80;;;5.70;99.90;;;;;;5015303;28;20501;-70
2021/03/05 09:03:12;;;;;;;5.43;3.27;;;5.70;99.90;;;;;;5030389;28;20538;-68
2021/03/05 09:05:46;;;;;;;7.20;2.70;;;5.70;99.90;;;;;;5030966;28;20459;-67
2021/03/05 09:08:14;;;;;;;9.20;4.20;;;5.70;99.90;;;;;;5030666;28;20484;-67
2021/03/05 09:10:54;;;;;;;8.70;3.77;;;5.80;99.90;;;;;;5030410;28;20474;-68
2021/03/05 09:13:29;;;;;;;8.53;4.97;;;5.80;99.90;;;;;;5032373;28;20462;-68
2021/03/05 09:15:57;;;;;;;7.17;3.83;;;5.80;99.90;;;;;;5013867;28;20471;-70
2021/03/05 09:18:34;;;;;;;8.10;4.50;;;5.90;99.90;;;;;;5013685;28;20481;-68
2021/03/05 09:21:10;;;;;;;6.37;4.20;;;5.90;99.90;;;;;;5030162;28;20465;-68
2021/03/05 09:23:41;;;;;;;7.83;4.40;;;6.00;99.90;;;;;;5030211;28;20470;-71
2021/03/05 09:26:15;;;;;;;6.60;4.30;;;5.90;99.90;;;;;;5005669;28;20458;-69
2021/03/05 09:28:46;;;;;;;7.03;4.00;;;5.90;99.90;;;;;;5043404;28;20468;-69
2021/03/05 09:31:14;;;;;;;9.30;4.47;;;5.80;99.90;;;;;;5026736;28;20487;-67
2021/03/05 09:33:43;;;;;;;10.90;4.57;;;5.90;99.90;;;;;;5026687;28;21001;-67
2021/03/05 09:36:20;;;;;;;7.57;4.13;;;5.90;99.90;;;;;;5026966;28;20462;-68
2021/03/05 09:38:52;;;;;;;7.10;4.03;;;5.90;99.90;;;;;;5031166;28;20482;-67
2021/03/05 09:41:20;;;;;;;5.87;3.97;;;5.90;99.90;;;;;;5046759;28;20537;-66
2021/03/05 09:43:58;;;;;;;6.33;2.87;;;6.00;99.90;;;;;;5030255;28;20448;-67
2021/03/05 09:46:26;;;;;;;8.07;4.17;;;5.90;99.90;;;;;;5031376;28;20467;-68
2021/03/05 09:48:53;;;;;;;7.20;3.80;;;6.00;99.90;;;;;;5014049;28;20489;-68
2021/03/05 09:51:19;;;;;;;7.70;3.67;;;5.90;99.90;;;;;;5030914;28;20539;-68
2021/03/05 09:53:57;;;;;;;7.10;4.17;;;5.90;99.90;;;;;;5033278;28;20451;-67
2021/03/05 09:56:25;;;;;;;5.63;2.80;;;6.00;99.90;;;;;;5032970;28;20557;-66
2021/03/05 09:59:08;;;;;;;6.37;2.90;;;6.00;99.90;;;;;;5033398;28;20471;-67
2021/03/05 10:01:39;;;;;;;6.63;4.27;;;6.10;99.90;;;;;;5015013;28;20466;-69
2021/03/05 10:04:05;;;;;;;5.57;3.20;;;6.10;99.90;;;;;;5014661;28;20493;-72
2021/03/05 10:06:32;;;;;;;5.40;3.20;;;6.10;99.90;;;;;;5015370;28;20473;-69
2021/03/05 10:09:07;;;;;;;8.00;4.13;;;6.00;99.90;;;;;;5047078;28;21152;-70
2021/03/05 10:11:43;;;;;;;7.90;3.77;;;6.10;99.90;;;;;;5031117;28;20983;-70
2021/03/05 10:14:10;;;;;;;7.77;3.90;;;6.10;99.90;;;;;;5022946;28;20456;-68
2021/03/05 10:16:41;;;;;;;7.77;3.80;;;6.10;99.90;;;;;;4995399;28;20480;-69
2021/03/05 10:19:16;;;;;;;10.13;4.10;;;6.10;99.90;;;;;;5011287;28;20479;-70
2021/03/05 10:21:49;;;;;;;5.70;3.20;;;6.10;99.90;;;;;;5026978;28;20493;-69
2021/03/05 10:24:17;;;;;;;6.30;3.33;;;6.10;99.90;;;;;;5045084;28;20459;-69
2021/03/05 10:27:10;;;;;;;6.93;4.00;;;6.10;99.90;;;;;;5013148;28;20455;-71
2021/03/05 10:29:45;;;;;;;6.70;4.23;;;6.20;99.90;;;;;;5014127;28;20463;-70
2021/03/05 10:32:21;;;;;;;7.10;4.10;;;6.20;99.90;;;;;;5048790;28;20465;-71
2021/03/05 10:34:48;;;;;;;8.80;3.57;;;6.20;99.90;;;;;;5030511;28;20545;-71
2021/03/05 10:37:15;;;;;;;4.53;2.90;;;6.20;99.90;;;;;;5029184;28;20470;-70
2021/03/05 10:39:42;;;;;;;4.77;2.23;;;6.20;99.90;;;;;;5027862;28;20899;-71
2021/03/05 10:42:13;;;;;;;5.63;4.27;;;6.20;99.90;;;;;;5029093;28;20463;-70
2021/03/05 10:44:40;;;;;;;6.43;3.40;;;6.10;99.90;;;;;;5030501;28;20549;-71
2021/03/05 10:47:08;;;;;;;5.30;3.27;;;6.20;99.90;;;;;;5014148;28;20455;-71
2021/03/05 10:49:34;;;;;;;7.53;4.47;;;6.20;99.90;;;;;;5029717;28;20454;-69
2021/03/05 10:52:00;;;;;;;10.70;4.47;;;6.10;99.90;;;;;;5029681;28;20515;-69
2021/03/05 10:54:26;;;;;;;8.40;5.17;;;6.20;99.90;;;;;;5044663;28;20993;-69
2021/03/05 10:56:53;;;;;;;7.30;4.07;;;6.20;99.90;;;;;;5029675;28;20455;-69
2021/03/05 10:59:20;;;;;;;6.77;3.80;;;6.30;99.90;;;;;;5009138;28;20989;-69
2021/03/05 11:01:46;;;;;;;10.07;4.90;;;6.30;99.90;;;;;;5009754;28;20494;-70
2021/03/05 11:04:14;;;;;;;5.00;3.97;;;6.40;99.90;;;;;;5010992;28;21001;-69
2021/03/05 11:06:40;;;;;;;9.50;5.10;;;6.40;99.90;;;;;;5010983;28;20554;-70
2021/03/05 11:09:06;;;;;;;7.20;4.17;;;6.40;99.90;;;;;;5011487;28;20831;-69
2021/03/05 11:11:33;;;;;;;7.67;4.17;;;6.40;99.90;;;;;;5015367;28;20489;-69
2021/03/05 11:13:59;;;;;;;6.73;4.20;;;6.40;99.90;;;;;;5015061;28;20462;-71
2021/03/05 11:16:25;;;;;;;8.27;3.50;;;6.40;99.90;;;;;;4999068;28;20455;-69
2021/03/05 11:18:51;;;;;;;6.83;3.37;;;6.40;99.90;;;;;;5014854;28;20513;-69
2021/03/05 11:21:17;;;;;;;4.10;3.30;;;6.40;99.90;;;;;;5031813;28;20479;-69
2021/03/05 11:23:44;;;;;;;5.93;3.23;;;6.30;99.90;;;;;;5031868;28;20217;-69
2021/03/05 11:26:11;;;;;;;4.47;3.40;;;6.30;99.90;;;;;;5048520;28;20495;-69
2021/03/05 11:28:37;;;;;;;10.40;5.93;;;6.40;99.90;;;;;;5028606;28;20488;-69
2021/03/05 11:31:03;;;;;;;7.03;4.20;;;6.30;99.90;;;;;;5045216;28;20463;-70
2021/03/05 11:33:29;;;;;;;6.80;4.30;;;6.40;99.90;;;;;;5031573;28;20480;-69
2021/03/05 11:35:55;;;;;;;9.07;4.47;;;6.30;99.90;;;;;;5031482;28;20216;-69
2021/03/05 11:38:21;;;;;;;6.90;3.30;;;6.30;99.90;;;;;;5047172;28;20311;-70
2021/03/05 11:40:46;;;;;;;6.37;3.80;;;6.30;99.90;;;;;;5029723;28;20228;-70
2021/03/05 11:43:12;;;;;;;9.83;3.87;;;6.40;99.90;;;;;;5029970;28;20223;-70
2021/03/05 11:45:38;;;;;;;4.10;2.80;;;6.30;99.90;;;;;;5029864;28;20308;-69
2021/03/05 11:48:04;;;;;;;6.00;3.67;;;6.30;99.90;;;;;;5029219;28;20220;-69
2021/03/05 11:50:30;;;;;;;8.37;4.27;;;6.40;99.90;;;;;;5029435;28;20240;-69
2021/03/05 11:52:56;;;;;;;1.83;1.50;;;6.40;99.90;;;;;;5029626;28;20974;-69
2021/03/05 11:55:21;;;;;;;4.00;2.10;;;6.40;99.90;;;;;;5010915;28;20216;-71
2021/03/05 11:57:47;;;;;;;4.77;3.30;;;6.40;99.90;;;;;;5045416;28;20277;-70
2021/03/05 12:00:13;;;;;;;2.87;2.57;;;6.40;99.90;;;;;;5028098;28;20217;-68
2021/03/05 12:02:39;;;;;;;4.13;2.93;;;6.60;99.90;;;;;;5042552;28;20220;-70
2021/03/05 12:05:06;;;;;;;3.17;2.90;;;6.60;99.90;;;;;;5011770;28;20443;-69
2021/03/05 12:07:31;;;;;;;3.50;2.90;;;6.70;99.90;;;;;;5012547;28;20217;-68
2021/03/05 12:09:57;;;;;;;6.30;3.30;;;6.80;99.90;;;;;;5028932;28;20466;-70
2021/03/05 12:12:23;;;;;;;6.07;3.53;;;6.80;99.90;;;;;;5028655;28;20235;-71
2021/03/05 12:14:48;;;;;;;5.20;2.87;;;6.90;99.90;;;;;;5012568;28;20235;-69
2021/03/05 12:17:15;;;;;;;5.30;3.40;;;7.00;99.90;;;;;;5029568;28;20254;-69
2021/03/05 12:19:41;;;;;;;3.63;2.57;;;7.00;99.90;;;;;;4995819;28;20236;-70
2021/03/05 12:22:07;;;;;;;3.90;3.20;;;7.00;99.90;;;;;;5046940;28;20454;-68
2021/03/05 12:24:33;;;;;;;7.30;3.60;;;7.00;99.90;;;;;;5029038;28;20997;-70
2021/03/05 12:26:59;;;;;;;5.37;3.40;;;7.00;99.90;;;;;;4995381;28;20470;-72
2021/03/05 12:29:25;;;;;;;5.67;3.50;;;7.10;99.90;;;;;;4991531;28;20896;-71
2021/03/05 12:31:51;;;;;;;6.13;4.43;;;7.10;99.90;;;;;;5020396;28;20613;-69
2021/03/05 12:34:16;;;;;;;4.63;2.70;;;7.10;99.90;;;;;;5028999;28;20702;-73
2021/03/05 12:36:42;;;;;;;3.83;3.13;;;7.10;99.90;;;;;;5028749;28;20220;-69
2021/03/05 12:39:08;;;;;;;5.47;3.93;;;7.10;99.90;;;;;;5011978;28;20228;-70
2021/03/05 12:41:33;;;;;;;4.60;3.43;;;7.10;99.90;;;;;;4995686;28;20236;-70
2021/03/05 12:43:59;;;;;;;3.70;2.80;;;7.10;99.90;;;;;;4995545;28;20228;-69
2021/03/05 12:46:25;;;;;;;4.80;3.33;;;7.10;99.90;;;;;;4995867;28;20593;-69
2021/03/05 12:48:51;;;;;;;9.00;3.67;;;7.20;99.90;;;;;;4995341;28;20459;-70
2021/03/05 12:51:18;;;;;;;3.07;2.20;;;7.10;99.90;;;;;;5011966;28;20821;-69
2021/03/05 12:53:44;;;;;;;2.63;1.97;;;7.10;99.90;;;;;;5028013;28;20694;-69
2021/03/05 12:56:10;;;;;;;4.10;2.37;;;7.10;99.90;;;;;;5027852;28;20496;-71
2021/03/05 12:58:35;;;;;;;3.83;2.50;;;7.10;99.90;;;;;;5011704;28;20514;-69
2021/03/05 13:01:01;;;;;;;3.60;2.20;;;7.10;99.90;;;;;;5028023;28;20217;-70
2021/03/05 13:03:27;;;;;;;4.37;3.13;;;7.10;99.90;;;;;;5030199;28;20227;-72
2021/03/05 13:05:52;;;;;;;5.30;3.80;;;7.10;99.90;;;;;;4996723;28;20228;-70